Disclaimer

Please do not use the information listed here in-flight or in-navigation, as they are not provided to us by the airports but are provided by volunteers, so they might be outdated.

Search


Regions


Airport information page

Radio informations:
RANCHI TWR - 122.3 MHz

Airport informations:
Latitude: 23° 18' 51.30" N
Longitude: 085° 19' 18.03" E
Elevation: 2148 feet - 655 meters
Operating hours: N/A
Operating agency: Civil government, landing fees and diplomatic clearance may be required
Timezone: UTC+5:30
Fuel: Jet fuel avaiable but type is unknown.

Runway information:
13/31 - 8855 x 148 feet< - >2699 x 45 meters

Recent METARs:
VERC 202300Z 00000KT 4000 HZ NSC 13/12 Q1018 NOSIG
VERC 210000Z 00000KT 3000 HZ NSC 13/11 Q1019 NOSIG
VERC 210100Z 00000KT 2500 HZ NSC 13/10 Q1019 NOSIG

Airport on the map: